sensor_id;sensor_type;location;lat;lon;timestamp;P1;durP1;ratioP1;P2;durP2;ratioP2
24635;SDS011;12772;49.794;10.024;2022-07-25T00:02:10;5.45;;;5.00;;
24635;SDS011;12772;49.794;10.024;2022-07-25T00:06:12;5.72;;;5.32;;
24635;SDS011;12772;49.794;10.024;2022-07-25T00:10:14;5.97;;;5.45;;
24635;SDS011;12772;49.794;10.024;2022-07-25T00:14:17;6.07;;;5.57;;
24635;SDS011;12772;49.794;10.024;2022-07-25T00:18:19;6.03;;;5.53;;
24635;SDS011;12772;49.794;10.024;2022-07-25T00:22:21;6.57;;;5.97;;
24635;SDS011;12772;49.794;10.024;2022-07-25T00:26:23;6.03;;;5.43;;
24635;SDS011;12772;49.794;10.024;2022-07-25T00:30:25;6.40;;;5.80;;
24635;SDS011;12772;49.794;10.024;2022-07-25T00:34:27;5.80;;;5.28;;
24635;SDS011;12772;49.794;10.024;2022-07-25T00:38:29;6.03;;;5.55;;
24635;SDS011;12772;49.794;10.024;2022-07-25T00:42:31;6.13;;;5.53;;
24635;SDS011;12772;49.794;10.024;2022-07-25T00:46:36;6.35;;;5.75;;
24635;SDS011;12772;49.794;10.024;2022-07-25T00:50:39;6.00;;;5.60;;
24635;SDS011;12772;49.794;10.024;2022-07-25T00:54:41;6.03;;;5.47;;
24635;SDS011;12772;49.794;10.024;2022-07-25T00:58:43;6.47;;;5.88;;
24635;SDS011;12772;49.794;10.024;2022-07-25T01:02:46;5.97;;;5.53;;
24635;SDS011;12772;49.794;10.024;2022-07-25T01:06:48;6.55;;;5.95;;
24635;SDS011;12772;49.794;10.024;2022-07-25T01:10:50;5.97;;;5.45;;
24635;SDS011;12772;49.794;10.024;2022-07-25T01:14:52;6.25;;;5.65;;
24635;SDS011;12772;49.794;10.024;2022-07-25T01:18:54;6.60;;;6.10;;
24635;SDS011;12772;49.794;10.024;2022-07-25T01:22:57;5.80;;;5.32;;
24635;SDS011;12772;49.794;10.024;2022-07-25T01:27:00;6.35;;;5.85;;
24635;SDS011;12772;49.794;10.024;2022-07-25T01:31:03;6.00;;;5.60;;
24635;SDS011;12772;49.794;10.024;2022-07-25T01:35:06;6.63;;;6.03;;
24635;SDS011;12772;49.794;10.024;2022-07-25T01:39:09;6.93;;;6.07;;
24635;SDS011;12772;49.794;10.024;2022-07-25T01:43:11;6.43;;;5.93;;
24635;SDS011;12772;49.794;10.024;2022-07-25T01:47:13;6.53;;;6.03;;
24635;SDS011;12772;49.794;10.024;2022-07-25T01:51:16;6.60;;;6.10;;
24635;SDS011;12772;49.794;10.024;2022-07-25T01:55:18;7.35;;;5.88;;
24635;SDS011;12772;49.794;10.024;2022-07-25T01:59:20;6.72;;;6.20;;
24635;SDS011;12772;49.794;10.024;2022-07-25T02:03:22;7.15;;;6.55;;
24635;SDS011;12772;49.794;10.024;2022-07-25T02:07:30;6.70;;;6.20;;
24635;SDS011;12772;49.794;10.024;2022-07-25T02:11:33;6.53;;;6.03;;
24635;SDS011;12772;49.794;10.024;2022-07-25T02:15:35;7.00;;;6.30;;
24635;SDS011;12772;49.794;10.024;2022-07-25T02:19:37;6.60;;;6.00;;
24635;SDS011;12772;49.794;10.024;2022-07-25T02:23:40;7.25;;;6.60;;
24635;SDS011;12772;49.794;10.024;2022-07-25T02:27:42;7.03;;;6.53;;
24635;SDS011;12772;49.794;10.024;2022-07-25T02:31:44;6.57;;;5.97;;
24635;SDS011;12772;49.794;10.024;2022-07-25T02:35:47;6.78;;;6.28;;
24635;SDS011;12772;49.794;10.024;2022-07-25T02:39:49;6.47;;;5.97;;
24635;SDS011;12772;49.794;10.024;2022-07-25T02:43:51;7.05;;;6.40;;
24635;SDS011;12772;49.794;10.024;2022-07-25T02:47:53;6.90;;;6.28;;
24635;SDS011;12772;49.794;10.024;2022-07-25T02:51:55;6.95;;;6.47;;
24635;SDS011;12772;49.794;10.024;2022-07-25T02:55:58;6.57;;;6.00;;
24635;SDS011;12772;49.794;10.024;2022-07-25T03:00:00;7.32;;;6.72;;
24635;SDS011;12772;49.794;10.024;2022-07-25T03:04:02;7.68;;;6.07;;
24635;SDS011;12772;49.794;10.024;2022-07-25T03:08:04;7.18;;;6.57;;
24635;SDS011;12772;49.794;10.024;2022-07-25T03:12:06;7.30;;;6.70;;
24635;SDS011;12772;49.794;10.024;2022-07-25T03:16:08;7.50;;;6.88;;
24635;SDS011;12772;49.794;10.024;2022-07-25T03:20:11;7.90;;;7.30;;
24635;SDS011;12772;49.794;10.024;2022-07-25T03:24:13;7.95;;;7.25;;
24635;SDS011;12772;49.794;10.024;2022-07-25T03:28:15;8.20;;;7.50;;
24635;SDS011;12772;49.794;10.024;2022-07-25T03:32:17;8.13;;;7.43;;
24635;SDS011;12772;49.794;10.024;2022-07-25T03:36:19;9.10;;;8.20;;
24635;SDS011;12772;49.794;10.024;2022-07-25T03:40:21;10.13;;;9.13;;
24635;SDS011;12772;49.794;10.024;2022-07-25T03:44:24;8.40;;;7.60;;
24635;SDS011;12772;49.794;10.024;2022-07-25T03:48:26;9.50;;;7.97;;
24635;SDS011;12772;49.794;10.024;2022-07-25T03:52:28;9.45;;;8.48;;
24635;SDS011;12772;49.794;10.024;2022-07-25T03:56:31;9.18;;;8.27;;
24635;SDS011;12772;49.794;10.024;2022-07-25T04:00:37;7.82;;;7.05;;
24635;SDS011;12772;49.794;10.024;2022-07-25T04:04:40;8.07;;;7.38;;
24635;SDS011;12772;49.794;10.024;2022-07-25T04:08:42;7.57;;;6.90;;
24635;SDS011;12772;49.794;10.024;2022-07-25T04:12:44;8.80;;;8.00;;
24635;SDS011;12772;49.794;10.024;2022-07-25T04:16:46;8.82;;;8.02;;
24635;SDS011;12772;49.794;10.024;2022-07-25T04:20:48;8.20;;;7.50;;
24635;SDS011;12772;49.794;10.024;2022-07-25T04:24:50;8.50;;;7.70;;
24635;SDS011;12772;49.794;10.024;2022-07-25T04:28:52;8.55;;;7.75;;
24635;SDS011;12772;49.794;10.024;2022-07-25T04:32:57;8.25;;;7.50;;
24635;SDS011;12772;49.794;10.024;2022-07-25T04:36:59;7.75;;;7.05;;
24635;SDS011;12772;49.794;10.024;2022-07-25T04:41:02;8.27;;;7.57;;
24635;SDS011;12772;49.794;10.024;2022-07-25T04:45:04;7.50;;;6.82;;
24635;SDS011;12772;49.794;10.024;2022-07-25T04:49:08;8.18;;;7.57;;
24635;SDS011;12772;49.794;10.024;2022-07-25T04:53:10;8.30;;;6.90;;
24635;SDS011;12772;49.794;10.024;2022-07-25T04:57:12;8.35;;;7.65;;
24635;SDS011;12772;49.794;10.024;2022-07-25T05:01:14;8.15;;;7.35;;
24635;SDS011;12772;49.794;10.024;2022-07-25T05:05:17;7.32;;;6.82;;
24635;SDS011;12772;49.794;10.024;2022-07-25T05:09:20;7.55;;;6.95;;
24635;SDS011;12772;49.794;10.024;2022-07-25T05:13:22;8.25;;;7.45;;
24635;SDS011;12772;49.794;10.024;2022-07-25T05:17:24;8.32;;;7.55;;
24635;SDS011;12772;49.794;10.024;2022-07-25T05:21:26;7.93;;;7.13;;
24635;SDS011;12772;49.794;10.024;2022-07-25T05:25:28;7.07;;;6.57;;
24635;SDS011;12772;49.794;10.024;2022-07-25T05:29:31;7.65;;;6.88;;
24635;SDS011;12772;49.794;10.024;2022-07-25T05:33:33;8.60;;;7.70;;
24635;SDS011;12772;49.794;10.024;2022-07-25T05:37:35;8.10;;;7.40;;
24635;SDS011;12772;49.794;10.024;2022-07-25T05:41:41;8.73;;;7.93;;
24635;SDS011;12772;49.794;10.024;2022-07-25T05:45:43;7.88;;;7.18;;
24635;SDS011;12772;49.794;10.024;2022-07-25T05:49:46;9.20;;;8.40;;
24635;SDS011;12772;49.794;10.024;2022-07-25T05:53:48;8.63;;;7.82;;
24635;SDS011;12772;49.794;10.024;2022-07-25T05:57:51;9.05;;;8.15;;
24635;SDS011;12772;49.794;10.024;2022-07-25T06:01:53;11.15;;;9.25;;
24635;SDS011;12772;49.794;10.024;2022-07-25T06:05:55;8.82;;;8.02;;
24635;SDS011;12772;49.794;10.024;2022-07-25T06:09:57;9.55;;;8.55;;
24635;SDS011;12772;49.794;10.024;2022-07-25T06:13:59;8.38;;;7.60;;
24635;SDS011;12772;49.794;10.024;2022-07-25T06:18:01;9.27;;;8.43;;
24635;SDS011;12772;49.794;10.024;2022-07-25T06:22:03;8.43;;;7.80;;
24635;SDS011;12772;49.794;10.024;2022-07-25T06:26:08;8.82;;;8.00;;
24635;SDS011;12772;49.794;10.024;2022-07-25T06:30:11;9.52;;;8.77;;
24635;SDS011;12772;49.794;10.024;2022-07-25T06:34:13;8.68;;;8.00;;
24635;SDS011;12772;49.794;10.024;2022-07-25T06:38:15;8.70;;;7.80;;
24635;SDS011;12772;49.794;10.024;2022-07-25T06:42:17;8.30;;;7.60;;
24635;SDS011;12772;49.794;10.024;2022-07-25T06:46:20;8.55;;;7.85;;
24635;SDS011;12772;49.794;10.024;2022-07-25T06:50:22;8.32;;;7.60;;
24635;SDS011;12772;49.794;10.024;2022-07-25T06:54:24;8.13;;;7.30;;
24635;SDS011;12772;49.794;10.024;2022-07-25T06:58:26;9.13;;;7.70;;
24635;SDS011;12772;49.794;10.024;2022-07-25T07:02:28;9.80;;;7.65;;
24635;SDS011;12772;49.794;10.024;2022-07-25T07:06:30;8.25;;;7.57;;
24635;SDS011;12772;49.794;10.024;2022-07-25T07:10:33;8.93;;;8.20;;
24635;SDS011;12772;49.794;10.024;2022-07-25T07:14:35;9.15;;;8.20;;
24635;SDS011;12772;49.794;10.024;2022-07-25T07:18:37;9.13;;;7.72;;
24635;SDS011;12772;49.794;10.024;2022-07-25T07:22:43;8.40;;;7.65;;
24635;SDS011;12772;49.794;10.024;2022-07-25T07:26:46;7.95;;;7.35;;
24635;SDS011;12772;49.794;10.024;2022-07-25T07:30:48;8.45;;;7.75;;
24635;SDS011;12772;49.794;10.024;2022-07-25T07:34:50;9.43;;;7.65;;
24635;SDS011;12772;49.794;10.024;2022-07-25T07:38:52;9.27;;;8.45;;
24635;SDS011;12772;49.794;10.024;2022-07-25T07:42:55;8.57;;;7.78;;
24635;SDS011;12772;49.794;10.024;2022-07-25T07:47:00;9.32;;;8.27;;
24635;SDS011;12772;49.794;10.024;2022-07-25T07:51:02;7.60;;;7.10;;
24635;SDS011;12772;49.794;10.024;2022-07-25T07:55:05;7.75;;;6.88;;
24635;SDS011;12772;49.794;10.024;2022-07-25T07:59:25;7.47;;;6.88;;
24635;SDS011;12772;49.794;10.024;2022-07-25T08:03:27;7.53;;;6.80;;
24635;SDS011;12772;49.794;10.024;2022-07-25T08:07:29;7.85;;;7.05;;
24635;SDS011;12772;49.794;10.024;2022-07-25T08:11:31;8.68;;;7.88;;
24635;SDS011;12772;49.794;10.024;2022-07-25T08:15:34;8.90;;;8.23;;
24635;SDS011;12772;49.794;10.024;2022-07-25T08:19:36;7.63;;;7.05;;
24635;SDS011;12772;49.794;10.024;2022-07-25T08:23:38;7.75;;;7.22;;
24635;SDS011;12772;49.794;10.024;2022-07-25T08:27:40;7.85;;;7.22;;
24635;SDS011;12772;49.794;10.024;2022-07-25T08:31:43;9.45;;;7.47;;
24635;SDS011;12772;49.794;10.024;2022-07-25T08:35:45;7.55;;;7.05;;
24635;SDS011;12772;49.794;10.024;2022-07-25T08:39:53;8.23;;;7.45;;
24635;SDS011;12772;49.794;10.024;2022-07-25T08:43:55;8.00;;;7.28;;
24635;SDS011;12772;49.794;10.024;2022-07-25T08:47:57;8.13;;;7.53;;
24635;SDS011;12772;49.794;10.024;2022-07-25T08:52:00;7.65;;;7.00;;
24635;SDS011;12772;49.794;10.024;2022-07-25T08:56:04;8.00;;;7.40;;
24635;SDS011;12772;49.794;10.024;2022-07-25T09:00:07;7.90;;;7.22;;
24635;SDS011;12772;49.794;10.024;2022-07-25T09:04:11;8.00;;;7.25;;
24635;SDS011;12772;49.794;10.024;2022-07-25T09:08:14;7.78;;;7.18;;
24635;SDS011;12772;49.794;10.024;2022-07-25T09:12:23;7.57;;;7.03;;
24635;SDS011;12772;49.794;10.024;2022-07-25T09:16:29;7.70;;;7.20;;
24635;SDS011;12772;49.794;10.024;2022-07-25T09:20:46;6.63;;;6.00;;
24635;SDS011;12772;49.794;10.024;2022-07-25T09:24:55;7.75;;;7.07;;
24635;SDS011;12772;49.794;10.024;2022-07-25T09:28:57;8.02;;;7.32;;
24635;SDS011;12772;49.794;10.024;2022-07-25T09:33:00;7.00;;;6.40;;
24635;SDS011;12772;49.794;10.024;2022-07-25T09:37:04;7.75;;;7.05;;
24635;SDS011;12772;49.794;10.024;2022-07-25T09:41:11;6.88;;;6.38;;
24635;SDS011;12772;49.794;10.024;2022-07-25T09:45:13;7.63;;;7.03;;
24635;SDS011;12772;49.794;10.024;2022-07-25T09:49:15;8.10;;;7.40;;
24635;SDS011;12772;49.794;10.024;2022-07-25T09:53:18;8.25;;;7.18;;
24635;SDS011;12772;49.794;10.024;2022-07-25T09:57:24;7.30;;;6.53;;
24635;SDS011;12772;49.794;10.024;2022-07-25T10:01:40;7.63;;;6.88;;
24635;SDS011;12772;49.794;10.024;2022-07-25T10:10:35;8.98;;;8.27;;
24635;SDS011;12772;49.794;10.024;2022-07-25T10:14:39;12.73;;;11.73;;
24635;SDS011;12772;49.794;10.024;2022-07-25T10:18:46;9.15;;;8.45;;
24635;SDS011;12772;49.794;10.024;2022-07-25T10:22:49;9.35;;;8.55;;
24635;SDS011;12772;49.794;10.024;2022-07-25T10:26:52;6.63;;;6.13;;
24635;SDS011;12772;49.794;10.024;2022-07-25T10:30:56;7.03;;;6.43;;
24635;SDS011;12772;49.794;10.024;2022-07-25T10:35:10;7.03;;;6.53;;
24635;SDS011;12772;49.794;10.024;2022-07-25T10:39:14;6.68;;;6.18;;
24635;SDS011;12772;49.794;10.024;2022-07-25T10:43:18;6.90;;;6.00;;
24635;SDS011;12772;49.794;10.024;2022-07-25T10:47:23;7.15;;;6.50;;
24635;SDS011;12772;49.794;10.024;2022-07-25T10:51:28;6.85;;;6.40;;
24635;SDS011;12772;49.794;10.024;2022-07-25T10:55:34;6.32;;;5.88;;
24635;SDS011;12772;49.794;10.024;2022-07-25T10:59:37;6.13;;;5.70;;
24635;SDS011;12772;49.794;10.024;2022-07-25T11:03:41;8.35;;;6.20;;
24635;SDS011;12772;49.794;10.024;2022-07-25T11:07:51;5.85;;;5.47;;
24635;SDS011;12772;49.794;10.024;2022-07-25T11:11:56;5.80;;;5.40;;
24635;SDS011;12772;49.794;10.024;2022-07-25T11:15:59;5.43;;;5.03;;
24635;SDS011;12772;49.794;10.024;2022-07-25T11:24:07;5.63;;;5.20;;
24635;SDS011;12772;49.794;10.024;2022-07-25T11:28:09;6.15;;;5.55;;
24635;SDS011;12772;49.794;10.024;2022-07-25T11:32:12;6.65;;;6.20;;
24635;SDS011;12772;49.794;10.024;2022-07-25T11:36:14;6.50;;;6.07;;
24635;SDS011;12772;49.794;10.024;2022-07-25T11:40:17;6.93;;;5.63;;
24635;SDS011;12772;49.794;10.024;2022-07-25T11:44:28;5.28;;;4.80;;
24635;SDS011;12772;49.794;10.024;2022-07-25T11:48:40;5.15;;;4.55;;
24635;SDS011;12772;49.794;10.024;2022-07-25T11:52:42;5.00;;;4.50;;
24635;SDS011;12772;49.794;10.024;2022-07-25T11:56:45;5.25;;;4.85;;
24635;SDS011;12772;49.794;10.024;2022-07-25T12:00:47;5.15;;;4.75;;
24635;SDS011;12772;49.794;10.024;2022-07-25T12:04:57;5.80;;;5.43;;
24635;SDS011;12772;49.794;10.024;2022-07-25T12:09:17;5.40;;;5.00;;
24635;SDS011;12772;49.794;10.024;2022-07-25T12:13:24;5.78;;;5.35;;
24635;SDS011;12772;49.794;10.024;2022-07-25T12:17:30;5.95;;;5.35;;
24635;SDS011;12772;49.794;10.024;2022-07-25T12:21:33;5.60;;;5.30;;
24635;SDS011;12772;49.794;10.024;2022-07-25T12:25:44;6.15;;;5.75;;
24635;SDS011;12772;49.794;10.024;2022-07-25T12:29:47;6.13;;;5.72;;
24635;SDS011;12772;49.794;10.024;2022-07-25T12:33:49;5.90;;;5.50;;
24635;SDS011;12772;49.794;10.024;2022-07-25T12:37:52;6.18;;;5.78;;
24635;SDS011;12772;49.794;10.024;2022-07-25T12:41:54;6.25;;;5.75;;
24635;SDS011;12772;49.794;10.024;2022-07-25T12:45:56;6.13;;;5.55;;
24635;SDS011;12772;49.794;10.024;2022-07-25T12:49:59;5.95;;;5.55;;
24635;SDS011;12772;49.794;10.024;2022-07-25T12:54:01;5.57;;;5.25;;
24635;SDS011;12772;49.794;10.024;2022-07-25T12:58:03;5.95;;;5.47;;
24635;SDS011;12772;49.794;10.024;2022-07-25T13:02:05;5.97;;;5.47;;
24635;SDS011;12772;49.794;10.024;2022-07-25T13:06:07;5.68;;;5.28;;
24635;SDS011;12772;49.794;10.024;2022-07-25T13:10:10;6.55;;;5.95;;
24635;SDS011;12772;49.794;10.024;2022-07-25T13:14:12;6.03;;;5.63;;
24635;SDS011;12772;49.794;10.024;2022-07-25T13:18:15;5.40;;;5.00;;
24635;SDS011;12772;49.794;10.024;2022-07-25T13:22:17;5.40;;;5.00;;
24635;SDS011;12772;49.794;10.024;2022-07-25T13:26:19;5.53;;;4.95;;
24635;SDS011;12772;49.794;10.024;2022-07-25T13:30:21;5.18;;;4.85;;
24635;SDS011;12772;49.794;10.024;2022-07-25T13:34:23;5.25;;;4.85;;
24635;SDS011;12772;49.794;10.024;2022-07-25T13:38:25;5.47;;;5.15;;
24635;SDS011;12772;49.794;10.024;2022-07-25T13:42:27;5.82;;;4.63;;
24635;SDS011;12772;49.794;10.024;2022-07-25T13:46:30;5.00;;;4.70;;
24635;SDS011;12772;49.794;10.024;2022-07-25T13:50:32;5.85;;;4.70;;
24635;SDS011;12772;49.794;10.024;2022-07-25T13:54:35;5.05;;;4.65;;
24635;SDS011;12772;49.794;10.024;2022-07-25T13:58:37;6.22;;;5.72;;
24635;SDS011;12772;49.794;10.024;2022-07-25T14:02:40;5.47;;;5.07;;
24635;SDS011;12772;49.794;10.024;2022-07-25T14:06:42;5.75;;;5.35;;
24635;SDS011;12772;49.794;10.024;2022-07-25T14:10:44;6.25;;;5.22;;
24635;SDS011;12772;49.794;10.024;2022-07-25T14:14:47;5.78;;;5.28;;
24635;SDS011;12772;49.794;10.024;2022-07-25T14:18:49;5.72;;;5.30;;
24635;SDS011;12772;49.794;10.024;2022-07-25T14:22:51;5.75;;;5.35;;
24635;SDS011;12772;49.794;10.024;2022-07-25T14:26:53;5.65;;;5.22;;
24635;SDS011;12772;49.794;10.024;2022-07-25T14:30:55;5.78;;;5.35;;
24635;SDS011;12772;49.794;10.024;2022-07-25T14:34:59;5.82;;;5.38;;
24635;SDS011;12772;49.794;10.024;2022-07-25T14:39:02;6.47;;;5.07;;
24635;SDS011;12772;49.794;10.024;2022-07-25T14:43:05;5.85;;;5.45;;
24635;SDS011;12772;49.794;10.024;2022-07-25T14:47:07;6.07;;;5.68;;
24635;SDS011;12772;49.794;10.024;2022-07-25T14:51:09;6.20;;;5.70;;
24635;SDS011;12772;49.794;10.024;2022-07-25T14:55:11;6.18;;;5.68;;
24635;SDS011;12772;49.794;10.024;2022-07-25T14:59:13;6.70;;;6.05;;
24635;SDS011;12772;49.794;10.024;2022-07-25T15:03:17;6.32;;;5.82;;
24635;SDS011;12772;49.794;10.024;2022-07-25T15:07:19;6.00;;;5.60;;
24635;SDS011;12772;49.794;10.024;2022-07-25T15:11:22;7.00;;;6.40;;
24635;SDS011;12772;49.794;10.024;2022-07-25T15:15:24;6.57;;;6.13;;
24635;SDS011;12772;49.794;10.024;2022-07-25T15:19:26;6.60;;;6.10;;
24635;SDS011;12772;49.794;10.024;2022-07-25T15:23:28;6.72;;;6.28;;
24635;SDS011;12772;49.794;10.024;2022-07-25T15:27:30;7.65;;;7.05;;
24635;SDS011;12772;49.794;10.024;2022-07-25T15:31:32;7.93;;;7.30;;
24635;SDS011;12772;49.794;10.024;2022-07-25T15:35:34;7.20;;;6.70;;
24635;SDS011;12772;49.794;10.024;2022-07-25T15:39:36;7.43;;;6.88;;
24635;SDS011;12772;49.794;10.024;2022-07-25T15:43:39;7.25;;;6.65;;
24635;SDS011;12772;49.794;10.024;2022-07-25T15:47:41;6.90;;;6.43;;
24635;SDS011;12772;49.794;10.024;2022-07-25T15:51:43;7.28;;;6.70;;
24635;SDS011;12772;49.794;10.024;2022-07-25T15:55:45;7.35;;;6.75;;
24635;SDS011;12772;49.794;10.024;2022-07-25T15:59:47;7.85;;;7.18;;
24635;SDS011;12772;49.794;10.024;2022-07-25T16:03:49;7.82;;;7.28;;
24635;SDS011;12772;49.794;10.024;2022-07-25T16:07:51;8.45;;;7.60;;
24635;SDS011;12772;49.794;10.024;2022-07-25T16:11:53;7.45;;;6.85;;
24635;SDS011;12772;49.794;10.024;2022-07-25T16:15:55;8.45;;;7.75;;
24635;SDS011;12772;49.794;10.024;2022-07-25T16:19:57;7.32;;;6.68;;
24635;SDS011;12772;49.794;10.024;2022-07-25T16:24:00;7.25;;;6.75;;
24635;SDS011;12772;49.794;10.024;2022-07-25T16:28:11;6.63;;;6.13;;
24635;SDS011;12772;49.794;10.024;2022-07-25T16:32:16;7.15;;;6.45;;
24635;SDS011;12772;49.794;10.024;2022-07-25T16:36:18;7.35;;;6.65;;
24635;SDS011;12772;49.794;10.024;2022-07-25T16:40:20;6.85;;;6.25;;
24635;SDS011;12772;49.794;10.024;2022-07-25T16:44:22;7.00;;;6.45;;
24635;SDS011;12772;49.794;10.024;2022-07-25T16:48:24;7.28;;;6.68;;
24635;SDS011;12772;49.794;10.024;2022-07-25T16:52:26;7.35;;;6.75;;
24635;SDS011;12772;49.794;10.024;2022-07-25T16:56:28;6.70;;;6.20;;
24635;SDS011;12772;49.794;10.024;2022-07-25T17:00:30;6.93;;;6.43;;
24635;SDS011;12772;49.794;10.024;2022-07-25T17:04:32;6.57;;;6.07;;
24635;SDS011;12772;49.794;10.024;2022-07-25T17:08:35;6.70;;;6.10;;
24635;SDS011;12772;49.794;10.024;2022-07-25T17:12:38;6.30;;;5.70;;
24635;SDS011;12772;49.794;10.024;2022-07-25T17:16:40;7.53;;;6.38;;
24635;SDS011;12772;49.794;10.024;2022-07-25T17:20:43;5.90;;;5.45;;
24635;SDS011;12772;49.794;10.024;2022-07-25T17:24:46;7.80;;;5.75;;
24635;SDS011;12772;49.794;10.024;2022-07-25T17:28:48;7.00;;;6.40;;
24635;SDS011;12772;49.794;10.024;2022-07-25T17:32:50;7.00;;;6.40;;
24635;SDS011;12772;49.794;10.024;2022-07-25T17:36:53;6.43;;;5.97;;
24635;SDS011;12772;49.794;10.024;2022-07-25T17:40:56;7.05;;;6.45;;
24635;SDS011;12772;49.794;10.024;2022-07-25T17:44:58;6.70;;;6.15;;
24635;SDS011;12772;49.794;10.024;2022-07-25T17:49:00;6.63;;;6.07;;
24635;SDS011;12772;49.794;10.024;2022-07-25T17:53:03;6.93;;;6.40;;
24635;SDS011;12772;49.794;10.024;2022-07-25T17:57:06;6.47;;;5.95;;
24635;SDS011;12772;49.794;10.024;2022-07-25T18:01:08;6.25;;;5.75;;
24635;SDS011;12772;49.794;10.024;2022-07-25T18:05:10;6.88;;;6.20;;
24635;SDS011;12772;49.794;10.024;2022-07-25T18:09:12;6.70;;;6.10;;
24635;SDS011;12772;49.794;10.024;2022-07-25T18:13:15;7.00;;;6.28;;
24635;SDS011;12772;49.794;10.024;2022-07-25T18:17:19;8.93;;;6.53;;
24635;SDS011;12772;49.794;10.024;2022-07-25T18:21:21;7.15;;;6.43;;
24635;SDS011;12772;49.794;10.024;2022-07-25T18:25:24;7.18;;;6.53;;
24635;SDS011;12772;49.794;10.024;2022-07-25T18:29:26;7.30;;;6.70;;
24635;SDS011;12772;49.794;10.024;2022-07-25T18:33:28;7.60;;;6.72;;
24635;SDS011;12772;49.794;10.024;2022-07-25T18:37:30;6.55;;;6.05;;
24635;SDS011;12772;49.794;10.024;2022-07-25T18:41:32;7.30;;;6.68;;
24635;SDS011;12772;49.794;10.024;2022-07-25T18:45:35;7.88;;;7.22;;
24635;SDS011;12772;49.794;10.024;2022-07-25T18:49:38;7.07;;;6.45;;
24635;SDS011;12772;49.794;10.024;2022-07-25T18:53:40;7.13;;;6.53;;
24635;SDS011;12772;49.794;10.024;2022-07-25T18:57:42;7.45;;;6.50;;
24635;SDS011;12772;49.794;10.024;2022-07-25T19:01:44;7.82;;;6.22;;
24635;SDS011;12772;49.794;10.024;2022-07-25T19:05:46;7.18;;;6.47;;
24635;SDS011;12772;49.794;10.024;2022-07-25T19:09:48;6.68;;;6.07;;
24635;SDS011;12772;49.794;10.024;2022-07-25T19:13:50;7.22;;;5.38;;
24635;SDS011;12772;49.794;10.024;2022-07-25T19:17:53;5.63;;;5.15;;
24635;SDS011;12772;49.794;10.024;2022-07-25T19:21:56;6.07;;;5.18;;
24635;SDS011;12772;49.794;10.024;2022-07-25T19:25:59;7.32;;;5.10;;
24635;SDS011;12772;49.794;10.024;2022-07-25T19:30:02;7.40;;;4.93;;
24635;SDS011;12772;49.794;10.024;2022-07-25T19:34:06;5.53;;;4.47;;
24635;SDS011;12772;49.794;10.024;2022-07-25T19:38:09;6.30;;;4.65;;
24635;SDS011;12772;49.794;10.024;2022-07-25T19:42:11;5.00;;;4.32;;
24635;SDS011;12772;49.794;10.024;2022-07-25T19:46:13;5.45;;;4.32;;
24635;SDS011;12772;49.794;10.024;2022-07-25T19:50:15;5.72;;;4.60;;
24635;SDS011;12772;49.794;10.024;2022-07-25T19:54:18;8.05;;;4.97;;
24635;SDS011;12772;49.794;10.024;2022-07-25T19:58:20;10.18;;;4.90;;
24635;SDS011;12772;49.794;10.024;2022-07-25T20:02:22;5.25;;;4.47;;
24635;SDS011;12772;49.794;10.024;2022-07-25T20:06:24;5.07;;;4.68;;
24635;SDS011;12772;49.794;10.024;2022-07-25T20:10:26;5.35;;;4.70;;
24635;SDS011;12772;49.794;10.024;2022-07-25T20:14:28;5.55;;;4.70;;
24635;SDS011;12772;49.794;10.024;2022-07-25T20:18:31;7.10;;;5.22;;
24635;SDS011;12772;49.794;10.024;2022-07-25T20:22:33;8.18;;;5.32;;
24635;SDS011;12772;49.794;10.024;2022-07-25T20:26:37;9.02;;;5.88;;
24635;SDS011;12772;49.794;10.024;2022-07-25T20:30:39;5.38;;;4.97;;
24635;SDS011;12772;49.794;10.024;2022-07-25T20:34:41;8.15;;;5.95;;
24635;SDS011;12772;49.794;10.024;2022-07-25T20:38:44;6.07;;;5.47;;
24635;SDS011;12772;49.794;10.024;2022-07-25T20:42:46;5.60;;;5.20;;
24635;SDS011;12772;49.794;10.024;2022-07-25T20:46:48;5.22;;;4.72;;
24635;SDS011;12772;49.794;10.024;2022-07-25T20:50:50;6.32;;;4.82;;
24635;SDS011;12772;49.794;10.024;2022-07-25T20:54:53;9.00;;;5.05;;
24635;SDS011;12772;49.794;10.024;2022-07-25T20:58:55;4.93;;;4.55;;
24635;SDS011;12772;49.794;10.024;2022-07-25T21:02:57;4.97;;;4.57;;
24635;SDS011;12772;49.794;10.024;2022-07-25T21:07:00;4.80;;;4.40;;
24635;SDS011;12772;49.794;10.024;2022-07-25T21:11:02;4.95;;;4.55;;
24635;SDS011;12772;49.794;10.024;2022-07-25T21:15:05;5.15;;;4.63;;
24635;SDS011;12772;49.794;10.024;2022-07-25T21:19:08;7.28;;;4.55;;
24635;SDS011;12772;49.794;10.024;2022-07-25T21:23:10;4.85;;;4.40;;
24635;SDS011;12772;49.794;10.024;2022-07-25T21:27:13;4.35;;;3.58;;
24635;SDS011;12772;49.794;10.024;2022-07-25T21:31:16;5.30;;;4.22;;
24635;SDS011;12772;49.794;10.024;2022-07-25T21:35:18;4.22;;;3.83;;
24635;SDS011;12772;49.794;10.024;2022-07-25T21:39:20;4.38;;;3.97;;
24635;SDS011;12772;49.794;10.024;2022-07-25T21:43:22;3.97;;;3.67;;
24635;SDS011;12772;49.794;10.024;2022-07-25T21:47:28;6.90;;;4.10;;
24635;SDS011;12772;49.794;10.024;2022-07-25T21:51:39;7.55;;;3.90;;
24635;SDS011;12772;49.794;10.024;2022-07-25T21:55:41;4.00;;;3.70;;
24635;SDS011;12772;49.794;10.024;2022-07-25T21:59:43;5.28;;;4.07;;
24635;SDS011;12772;49.794;10.024;2022-07-25T22:03:46;5.03;;;3.83;;
24635;SDS011;12772;49.794;10.024;2022-07-25T22:07:48;3.30;;;3.00;;
24635;SDS011;12772;49.794;10.024;2022-07-25T22:11:52;4.82;;;3.75;;
24635;SDS011;12772;49.794;10.024;2022-07-25T22:15:55;5.05;;;3.55;;
24635;SDS011;12772;49.794;10.024;2022-07-25T22:19:57;6.55;;;3.50;;
24635;SDS011;12772;49.794;10.024;2022-07-25T22:23:59;4.03;;;3.65;;
24635;SDS011;12772;49.794;10.024;2022-07-25T22:28:02;3.88;;;3.58;;
24635;SDS011;12772;49.794;10.024;2022-07-25T22:32:04;3.72;;;3.38;;
24635;SDS011;12772;49.794;10.024;2022-07-25T22:36:06;4.45;;;3.20;;
24635;SDS011;12772;49.794;10.024;2022-07-25T22:40:08;3.40;;;3.10;;
24635;SDS011;12772;49.794;10.024;2022-07-25T22:44:11;6.10;;;3.38;;
24635;SDS011;12772;49.794;10.024;2022-07-25T22:48:13;7.45;;;3.42;;
24635;SDS011;12772;49.794;10.024;2022-07-25T22:52:15;5.88;;;3.20;;
24635;SDS011;12772;49.794;10.024;2022-07-25T22:56:17;6.50;;;3.50;;
24635;SDS011;12772;49.794;10.024;2022-07-25T23:00:20;3.22;;;2.80;;
24635;SDS011;12772;49.794;10.024;2022-07-25T23:04:22;4.63;;;2.65;;
24635;SDS011;12772;49.794;10.024;2022-07-25T23:08:24;3.92;;;2.78;;
24635;SDS011;12772;49.794;10.024;2022-07-25T23:12:26;3.42;;;3.13;;
24635;SDS011;12772;49.794;10.024;2022-07-25T23:16:29;3.38;;;2.80;;
24635;SDS011;12772;49.794;10.024;2022-07-25T23:20:31;3.13;;;2.83;;
24635;SDS011;12772;49.794;10.024;2022-07-25T23:24:33;3.97;;;2.92;;
24635;SDS011;12772;49.794;10.024;2022-07-25T23:28:35;2.85;;;2.45;;
24635;SDS011;12772;49.794;10.024;2022-07-25T23:32:37;3.78;;;2.90;;
24635;SDS011;12772;49.794;10.024;2022-07-25T23:36:39;3.90;;;2.97;;
24635;SDS011;12772;49.794;10.024;2022-07-25T23:40:41;3.50;;;2.55;;
24635;SDS011;12772;49.794;10.024;2022-07-25T23:44:43;2.90;;;2.67;;
24635;SDS011;12772;49.794;10.024;2022-07-25T23:48:45;3.97;;;3.30;;
24635;SDS011;12772;49.794;10.024;2022-07-25T23:52:48;5.18;;;3.10;;
24635;SDS011;12772;49.794;10.024;2022-07-25T23:56:50;3.10;;;2.80;;
